sensor_id;sensor_type;location;lat;lon;timestamp;P1;durP1;ratioP1;P2;durP2;ratioP2
60243;SDS011;46106;51.468;5.814;2023-04-24T00:01:38;21.33;;;11.98;;
60243;SDS011;46106;51.468;5.814;2023-04-24T00:04:04;25.05;;;13.02;;
60243;SDS011;46106;51.468;5.814;2023-04-24T00:06:32;25.10;;;11.82;;
60243;SDS011;46106;51.468;5.814;2023-04-24T00:09:02;24.80;;;12.93;;
60243;SDS011;46106;51.468;5.814;2023-04-24T00:11:29;24.05;;;13.55;;
60243;SDS011;46106;51.468;5.814;2023-04-24T00:13:58;23.90;;;14.20;;
60243;SDS011;46106;51.468;5.814;2023-04-24T00:16:23;24.45;;;13.15;;
60243;SDS011;46106;51.468;5.814;2023-04-24T00:18:49;27.38;;;13.02;;
60243;SDS011;46106;51.468;5.814;2023-04-24T00:21:15;21.42;;;12.48;;
60243;SDS011;46106;51.468;5.814;2023-04-24T00:23:43;19.88;;;12.38;;
60243;SDS011;46106;51.468;5.814;2023-04-24T00:26:09;11.57;;;7.80;;
60243;SDS011;46106;51.468;5.814;2023-04-24T00:28:35;22.00;;;11.10;;
60243;SDS011;46106;51.468;5.814;2023-04-24T00:31:00;19.13;;;12.77;;
60243;SDS011;46106;51.468;5.814;2023-04-24T00:33:26;24.83;;;12.80;;
60243;SDS011;46106;51.468;5.814;2023-04-24T00:35:51;25.60;;;12.43;;
60243;SDS011;46106;51.468;5.814;2023-04-24T00:38:17;24.85;;;11.52;;
60243;SDS011;46106;51.468;5.814;2023-04-24T00:40:43;24.20;;;11.75;;
60243;SDS011;46106;51.468;5.814;2023-04-24T00:43:09;19.58;;;10.40;;
60243;SDS011;46106;51.468;5.814;2023-04-24T00:45:34;20.88;;;10.75;;
60243;SDS011;46106;51.468;5.814;2023-04-24T00:48:01;20.70;;;11.00;;
60243;SDS011;46106;51.468;5.814;2023-04-24T00:50:27;17.10;;;9.73;;
60243;SDS011;46106;51.468;5.814;2023-04-24T00:52:53;19.30;;;8.63;;
60243;SDS011;46106;51.468;5.814;2023-04-24T00:55:19;23.00;;;11.15;;
60243;SDS011;46106;51.468;5.814;2023-04-24T00:57:45;16.30;;;10.15;;
60243;SDS011;46106;51.468;5.814;2023-04-24T01:00:11;20.52;;;11.73;;
60243;SDS011;46106;51.468;5.814;2023-04-24T01:02:43;20.45;;;11.00;;
60243;SDS011;46106;51.468;5.814;2023-04-24T01:05:10;23.85;;;11.27;;
60243;SDS011;46106;51.468;5.814;2023-04-24T01:07:44;19.17;;;11.23;;
60243;SDS011;46106;51.468;5.814;2023-04-24T01:10:13;25.17;;;11.80;;
60243;SDS011;46106;51.468;5.814;2023-04-24T01:12:39;28.23;;;12.70;;
60243;SDS011;46106;51.468;5.814;2023-04-24T01:15:05;40.95;;;13.68;;
60243;SDS011;46106;51.468;5.814;2023-04-24T01:17:31;22.33;;;11.60;;
60243;SDS011;46106;51.468;5.814;2023-04-24T01:19:58;24.52;;;12.98;;
60243;SDS011;46106;51.468;5.814;2023-04-24T01:22:25;21.08;;;13.07;;
60243;SDS011;46106;51.468;5.814;2023-04-24T01:24:51;30.95;;;14.25;;
60243;SDS011;46106;51.468;5.814;2023-04-24T01:27:18;19.83;;;11.95;;
60243;SDS011;46106;51.468;5.814;2023-04-24T01:29:45;29.88;;;14.52;;
60243;SDS011;46106;51.468;5.814;2023-04-24T01:32:10;31.67;;;15.38;;
60243;SDS011;46106;51.468;5.814;2023-04-24T01:34:39;34.17;;;14.82;;
60243;SDS011;46106;51.468;5.814;2023-04-24T01:37:05;32.78;;;15.27;;
60243;SDS011;46106;51.468;5.814;2023-04-24T01:39:31;27.55;;;14.70;;
60243;SDS011;46106;51.468;5.814;2023-04-24T01:41:58;37.25;;;15.38;;
60243;SDS011;46106;51.468;5.814;2023-04-24T01:44:25;31.30;;;15.65;;
60243;SDS011;46106;51.468;5.814;2023-04-24T01:46:51;29.88;;;16.58;;
60243;SDS011;46106;51.468;5.814;2023-04-24T01:49:19;30.15;;;15.52;;
60243;SDS011;46106;51.468;5.814;2023-04-24T01:51:44;29.33;;;15.80;;
60243;SDS011;46106;51.468;5.814;2023-04-24T01:54:10;29.90;;;15.88;;
60243;SDS011;46106;51.468;5.814;2023-04-24T01:56:35;41.13;;;17.10;;
60243;SDS011;46106;51.468;5.814;2023-04-24T01:59:05;30.33;;;14.85;;
60243;SDS011;46106;51.468;5.814;2023-04-24T02:01:35;27.33;;;15.88;;
60243;SDS011;46106;51.468;5.814;2023-04-24T02:04:01;29.63;;;14.10;;
60243;SDS011;46106;51.468;5.814;2023-04-24T02:06:27;39.22;;;17.27;;
60243;SDS011;46106;51.468;5.814;2023-04-24T02:08:52;36.67;;;19.92;;
60243;SDS011;46106;51.468;5.814;2023-04-24T02:11:18;34.08;;;18.48;;
60243;SDS011;46106;51.468;5.814;2023-04-24T02:13:44;39.40;;;19.48;;
60243;SDS011;46106;51.468;5.814;2023-04-24T02:16:09;30.13;;;18.33;;
60243;SDS011;46106;51.468;5.814;2023-04-24T02:18:35;40.75;;;20.20;;
60243;SDS011;46106;51.468;5.814;2023-04-24T02:21:00;37.90;;;18.73;;
60243;SDS011;46106;51.468;5.814;2023-04-24T02:23:26;31.48;;;17.98;;
60243;SDS011;46106;51.468;5.814;2023-04-24T02:25:52;32.80;;;17.75;;
60243;SDS011;46106;51.468;5.814;2023-04-24T02:28:18;34.72;;;18.00;;
60243;SDS011;46106;51.468;5.814;2023-04-24T02:30:44;31.67;;;18.92;;
60243;SDS011;46106;51.468;5.814;2023-04-24T02:33:10;37.05;;;18.00;;
60243;SDS011;46106;51.468;5.814;2023-04-24T02:35:36;37.00;;;18.65;;
60243;SDS011;46106;51.468;5.814;2023-04-24T02:38:02;46.88;;;20.88;;
60243;SDS011;46106;51.468;5.814;2023-04-24T02:40:28;33.10;;;19.13;;
60243;SDS011;46106;51.468;5.814;2023-04-24T02:42:54;31.40;;;19.33;;
60243;SDS011;46106;51.468;5.814;2023-04-24T02:45:19;40.25;;;19.60;;
60243;SDS011;46106;51.468;5.814;2023-04-24T02:47:45;34.42;;;18.45;;
60243;SDS011;46106;51.468;5.814;2023-04-24T02:50:10;33.90;;;19.00;;
60243;SDS011;46106;51.468;5.814;2023-04-24T02:52:39;37.10;;;18.88;;
60243;SDS011;46106;51.468;5.814;2023-04-24T02:55:04;36.05;;;18.20;;
60243;SDS011;46106;51.468;5.814;2023-04-24T02:57:30;38.03;;;19.55;;
60243;SDS011;46106;51.468;5.814;2023-04-24T02:59:55;37.78;;;18.88;;
60243;SDS011;46106;51.468;5.814;2023-04-24T03:02:21;31.73;;;17.80;;
60243;SDS011;46106;51.468;5.814;2023-04-24T03:04:47;35.92;;;17.02;;
60243;SDS011;46106;51.468;5.814;2023-04-24T03:07:15;37.10;;;16.10;;
60243;SDS011;46106;51.468;5.814;2023-04-24T03:09:41;25.67;;;15.23;;
60243;SDS011;46106;51.468;5.814;2023-04-24T03:12:06;30.63;;;16.83;;
60243;SDS011;46106;51.468;5.814;2023-04-24T03:14:32;26.50;;;14.68;;
60243;SDS011;46106;51.468;5.814;2023-04-24T03:16:57;31.42;;;16.80;;
60243;SDS011;46106;51.468;5.814;2023-04-24T03:19:23;33.25;;;16.35;;
60243;SDS011;46106;51.468;5.814;2023-04-24T03:21:49;35.65;;;16.88;;
60243;SDS011;46106;51.468;5.814;2023-04-24T03:24:15;40.45;;;19.20;;
60243;SDS011;46106;51.468;5.814;2023-04-24T03:26:40;29.95;;;16.27;;
60243;SDS011;46106;51.468;5.814;2023-04-24T03:29:06;30.92;;;16.48;;
60243;SDS011;46106;51.468;5.814;2023-04-24T03:31:32;29.70;;;15.73;;
60243;SDS011;46106;51.468;5.814;2023-04-24T03:33:57;24.92;;;14.88;;
60243;SDS011;46106;51.468;5.814;2023-04-24T03:36:22;30.98;;;13.68;;
60243;SDS011;46106;51.468;5.814;2023-04-24T03:38:48;23.70;;;14.10;;
60243;SDS011;46106;51.468;5.814;2023-04-24T03:41:13;29.55;;;13.95;;
60243;SDS011;46106;51.468;5.814;2023-04-24T03:43:39;24.92;;;13.73;;
60243;SDS011;46106;51.468;5.814;2023-04-24T03:46:04;29.00;;;14.13;;
60243;SDS011;46106;51.468;5.814;2023-04-24T03:48:30;30.05;;;14.05;;
60243;SDS011;46106;51.468;5.814;2023-04-24T03:50:56;26.00;;;13.85;;
60243;SDS011;46106;51.468;5.814;2023-04-24T03:53:21;22.90;;;12.90;;
60243;SDS011;46106;51.468;5.814;2023-04-24T03:55:47;28.98;;;12.90;;
60243;SDS011;46106;51.468;5.814;2023-04-24T03:58:12;21.70;;;13.77;;
60243;SDS011;46106;51.468;5.814;2023-04-24T04:00:39;35.33;;;14.15;;
60243;SDS011;46106;51.468;5.814;2023-04-24T04:03:05;18.80;;;12.10;;
60243;SDS011;46106;51.468;5.814;2023-04-24T04:05:31;19.42;;;11.50;;
60243;SDS011;46106;51.468;5.814;2023-04-24T04:07:57;23.48;;;12.75;;
60243;SDS011;46106;51.468;5.814;2023-04-24T04:10:22;26.65;;;13.68;;
60243;SDS011;46106;51.468;5.814;2023-04-24T04:12:48;23.83;;;13.27;;
60243;SDS011;46106;51.468;5.814;2023-04-24T04:15:13;18.38;;;10.57;;
60243;SDS011;46106;51.468;5.814;2023-04-24T04:20:45;20.95;;;10.52;;
60243;SDS011;46106;51.468;5.814;2023-04-24T04:23:10;22.75;;;12.20;;
60243;SDS011;46106;51.468;5.814;2023-04-24T04:25:39;25.88;;;11.52;;
60243;SDS011;46106;51.468;5.814;2023-04-24T04:28:04;19.05;;;11.23;;
60243;SDS011;46106;51.468;5.814;2023-04-24T04:30:31;17.55;;;11.40;;
60243;SDS011;46106;51.468;5.814;2023-04-24T04:32:57;18.90;;;12.07;;
60243;SDS011;46106;51.468;5.814;2023-04-24T04:35:23;22.00;;;11.35;;
60243;SDS011;46106;51.468;5.814;2023-04-24T04:37:49;26.10;;;13.07;;
60243;SDS011;46106;51.468;5.814;2023-04-24T04:40:16;18.98;;;12.30;;
60243;SDS011;46106;51.468;5.814;2023-04-24T04:42:42;16.05;;;10.73;;
60243;SDS011;46106;51.468;5.814;2023-04-24T04:45:11;20.83;;;12.02;;
60243;SDS011;46106;51.468;5.814;2023-04-24T04:47:37;18.20;;;11.38;;
60243;SDS011;46106;51.468;5.814;2023-04-24T04:50:02;26.13;;;12.55;;
60243;SDS011;46106;51.468;5.814;2023-04-24T04:52:29;19.13;;;11.00;;
60243;SDS011;46106;51.468;5.814;2023-04-24T04:54:54;20.25;;;11.73;;
60243;SDS011;46106;51.468;5.814;2023-04-24T04:57:20;20.77;;;11.20;;
60243;SDS011;46106;51.468;5.814;2023-04-24T04:59:46;23.05;;;11.95;;
60243;SDS011;46106;51.468;5.814;2023-04-24T05:02:12;23.38;;;12.50;;
60243;SDS011;46106;51.468;5.814;2023-04-24T05:04:37;24.20;;;13.48;;
60243;SDS011;46106;51.468;5.814;2023-04-24T05:07:02;22.42;;;13.27;;
60243;SDS011;46106;51.468;5.814;2023-04-24T05:09:28;20.55;;;12.63;;
60243;SDS011;46106;51.468;5.814;2023-04-24T05:11:54;21.85;;;12.00;;
60243;SDS011;46106;51.468;5.814;2023-04-24T05:14:21;22.55;;;11.63;;
60243;SDS011;46106;51.468;5.814;2023-04-24T05:16:47;26.40;;;13.20;;
60243;SDS011;46106;51.468;5.814;2023-04-24T05:19:13;22.00;;;12.05;;
60243;SDS011;46106;51.468;5.814;2023-04-24T05:21:42;26.70;;;13.98;;
60243;SDS011;46106;51.468;5.814;2023-04-24T05:24:08;19.70;;;11.57;;
60243;SDS011;46106;51.468;5.814;2023-04-24T05:26:33;20.08;;;11.98;;
60243;SDS011;46106;51.468;5.814;2023-04-24T05:29:00;21.35;;;12.07;;
60243;SDS011;46106;51.468;5.814;2023-04-24T05:31:26;26.77;;;12.90;;
60243;SDS011;46106;51.468;5.814;2023-04-24T05:33:51;24.73;;;12.38;;
60243;SDS011;46106;51.468;5.814;2023-04-24T05:36:17;16.52;;;10.85;;
60243;SDS011;46106;51.468;5.814;2023-04-24T05:38:42;16.40;;;11.10;;
60243;SDS011;46106;51.468;5.814;2023-04-24T05:41:08;17.77;;;9.93;;
60243;SDS011;46106;51.468;5.814;2023-04-24T05:43:33;18.33;;;9.82;;
60243;SDS011;46106;51.468;5.814;2023-04-24T05:45:59;15.35;;;8.38;;
60243;SDS011;46106;51.468;5.814;2023-04-24T05:48:24;13.32;;;9.45;;
60243;SDS011;46106;51.468;5.814;2023-04-24T05:50:50;16.35;;;9.23;;
60243;SDS011;46106;51.468;5.814;2023-04-24T05:53:17;17.40;;;9.38;;
60243;SDS011;46106;51.468;5.814;2023-04-24T05:55:43;14.20;;;8.95;;
60243;SDS011;46106;51.468;5.814;2023-04-24T05:58:08;14.98;;;8.13;;
60243;SDS011;46106;51.468;5.814;2023-04-24T06:00:34;10.88;;;5.85;;
60243;SDS011;46106;51.468;5.814;2023-04-24T06:03:00;9.02;;;5.93;;
60243;SDS011;46106;51.468;5.814;2023-04-24T06:05:26;9.25;;;4.70;;
60243;SDS011;46106;51.468;5.814;2023-04-24T06:07:51;20.92;;;5.07;;
60243;SDS011;46106;51.468;5.814;2023-04-24T06:10:17;6.28;;;4.35;;
60243;SDS011;46106;51.468;5.814;2023-04-24T06:12:43;6.93;;;3.47;;
60243;SDS011;46106;51.468;5.814;2023-04-24T06:15:08;5.45;;;3.47;;
60243;SDS011;46106;51.468;5.814;2023-04-24T06:17:34;11.07;;;3.38;;
60243;SDS011;46106;51.468;5.814;2023-04-24T06:19:59;4.93;;;2.50;;
60243;SDS011;46106;51.468;5.814;2023-04-24T06:22:30;4.05;;;2.22;;
60243;SDS011;46106;51.468;5.814;2023-04-24T06:24:56;3.95;;;1.80;;
60243;SDS011;46106;51.468;5.814;2023-04-24T06:27:21;2.17;;;1.77;;
60243;SDS011;46106;51.468;5.814;2023-04-24T06:29:47;2.22;;;1.52;;
60243;SDS011;46106;51.468;5.814;2023-04-24T06:32:19;3.22;;;1.83;;
60243;SDS011;46106;51.468;5.814;2023-04-24T06:34:45;2.45;;;1.65;;
60243;SDS011;46106;51.468;5.814;2023-04-24T06:37:10;2.47;;;1.42;;
60243;SDS011;46106;51.468;5.814;2023-04-24T06:39:35;2.25;;;1.42;;
60243;SDS011;46106;51.468;5.814;2023-04-24T06:42:01;4.25;;;1.67;;
60243;SDS011;46106;51.468;5.814;2023-04-24T06:44:26;5.47;;;1.50;;
60243;SDS011;46106;51.468;5.814;2023-04-24T06:46:52;2.88;;;1.80;;
60243;SDS011;46106;51.468;5.814;2023-04-24T06:49:17;3.97;;;2.15;;
60243;SDS011;46106;51.468;5.814;2023-04-24T06:51:43;3.47;;;1.80;;
60243;SDS011;46106;51.468;5.814;2023-04-24T06:54:08;3.63;;;1.92;;
60243;SDS011;46106;51.468;5.814;2023-04-24T06:56:33;4.35;;;2.17;;
60243;SDS011;46106;51.468;5.814;2023-04-24T06:58:59;4.18;;;2.08;;
60243;SDS011;46106;51.468;5.814;2023-04-24T07:01:24;4.55;;;2.42;;
60243;SDS011;46106;51.468;5.814;2023-04-24T07:03:50;4.15;;;2.65;;
60243;SDS011;46106;51.468;5.814;2023-04-24T07:06:16;4.95;;;2.63;;
60243;SDS011;46106;51.468;5.814;2023-04-24T07:08:43;2.55;;;2.35;;
60243;SDS011;46106;51.468;5.814;2023-04-24T07:11:09;3.30;;;1.88;;
60243;SDS011;46106;51.468;5.814;2023-04-24T07:13:34;3.15;;;2.10;;
60243;SDS011;46106;51.468;5.814;2023-04-24T07:16:00;6.13;;;2.08;;
60243;SDS011;46106;51.468;5.814;2023-04-24T07:18:26;7.13;;;2.00;;
60243;SDS011;46106;51.468;5.814;2023-04-24T07:20:51;4.65;;;2.08;;
60243;SDS011;46106;51.468;5.814;2023-04-24T07:23:17;6.63;;;3.08;;
60243;SDS011;46106;51.468;5.814;2023-04-24T07:25:43;7.25;;;3.15;;
60243;SDS011;46106;51.468;5.814;2023-04-24T07:28:09;7.32;;;3.65;;
60243;SDS011;46106;51.468;5.814;2023-04-24T07:30:34;11.82;;;4.85;;
60243;SDS011;46106;51.468;5.814;2023-04-24T07:33:03;10.60;;;4.68;;
60243;SDS011;46106;51.468;5.814;2023-04-24T07:35:28;16.83;;;7.07;;
60243;SDS011;46106;51.468;5.814;2023-04-24T07:37:54;13.93;;;8.10;;
60243;SDS011;46106;51.468;5.814;2023-04-24T07:40:19;14.48;;;8.18;;
60243;SDS011;46106;51.468;5.814;2023-04-24T07:42:45;18.85;;;9.57;;
60243;SDS011;46106;51.468;5.814;2023-04-24T07:45:13;19.80;;;10.95;;
60243;SDS011;46106;51.468;5.814;2023-04-24T07:47:39;25.60;;;13.25;;
60243;SDS011;46106;51.468;5.814;2023-04-24T07:50:08;28.42;;;12.88;;
60243;SDS011;46106;51.468;5.814;2023-04-24T07:52:34;33.67;;;13.52;;
60243;SDS011;46106;51.468;5.814;2023-04-24T07:54:59;25.25;;;14.02;;
60243;SDS011;46106;51.468;5.814;2023-04-24T07:57:25;25.52;;;12.65;;
60243;SDS011;46106;51.468;5.814;2023-04-24T07:59:50;24.77;;;11.80;;
60243;SDS011;46106;51.468;5.814;2023-04-24T08:02:16;20.88;;;10.30;;
60243;SDS011;46106;51.468;5.814;2023-04-24T08:04:42;29.83;;;12.55;;
60243;SDS011;46106;51.468;5.814;2023-04-24T08:07:07;26.15;;;12.88;;
60243;SDS011;46106;51.468;5.814;2023-04-24T08:09:33;28.65;;;11.80;;
60243;SDS011;46106;51.468;5.814;2023-04-24T08:11:58;21.05;;;8.88;;
60243;SDS011;46106;51.468;5.814;2023-04-24T08:14:24;23.52;;;10.13;;
60243;SDS011;46106;51.468;5.814;2023-04-24T08:16:50;19.65;;;9.90;;
60243;SDS011;46106;51.468;5.814;2023-04-24T08:19:17;28.60;;;10.02;;
60243;SDS011;46106;51.468;5.814;2023-04-24T08:21:42;26.55;;;9.25;;
60243;SDS011;46106;51.468;5.814;2023-04-24T08:24:08;26.17;;;9.40;;
60243;SDS011;46106;51.468;5.814;2023-04-24T08:26:33;22.55;;;10.10;;
60243;SDS011;46106;51.468;5.814;2023-04-24T08:28:59;25.70;;;9.32;;
60243;SDS011;46106;51.468;5.814;2023-04-24T08:31:24;17.33;;;8.70;;
60243;SDS011;46106;51.468;5.814;2023-04-24T08:33:51;27.52;;;9.00;;
60243;SDS011;46106;51.468;5.814;2023-04-24T08:36:16;21.10;;;8.77;;
60243;SDS011;46106;51.468;5.814;2023-04-24T08:38:42;22.88;;;7.32;;
60243;SDS011;46106;51.468;5.814;2023-04-24T08:41:07;18.88;;;8.15;;
60243;SDS011;46106;51.468;5.814;2023-04-24T08:43:35;16.80;;;7.85;;
60243;SDS011;46106;51.468;5.814;2023-04-24T08:46:01;30.77;;;8.63;;
60243;SDS011;46106;51.468;5.814;2023-04-24T08:48:28;23.30;;;9.05;;
60243;SDS011;46106;51.468;5.814;2023-04-24T08:50:55;31.83;;;10.00;;
60243;SDS011;46106;51.468;5.814;2023-04-24T08:53:21;33.15;;;8.73;;
60243;SDS011;46106;51.468;5.814;2023-04-24T08:55:49;30.02;;;9.82;;
60243;SDS011;46106;51.468;5.814;2023-04-24T08:58:16;31.45;;;9.75;;
60243;SDS011;46106;51.468;5.814;2023-04-24T09:00:43;42.30;;;10.35;;
60243;SDS011;46106;51.468;5.814;2023-04-24T09:03:12;43.75;;;11.52;;
60243;SDS011;46106;51.468;5.814;2023-04-24T09:05:39;26.00;;;11.10;;
60243;SDS011;46106;51.468;5.814;2023-04-24T09:08:05;33.85;;;11.25;;
60243;SDS011;46106;51.468;5.814;2023-04-24T09:10:33;30.95;;;9.23;;
60243;SDS011;46106;51.468;5.814;2023-04-24T09:12:59;22.08;;;6.75;;
60243;SDS011;46106;51.468;5.814;2023-04-24T09:15:28;23.85;;;6.10;;
60243;SDS011;46106;51.468;5.814;2023-04-24T09:17:54;22.98;;;5.63;;
60243;SDS011;46106;51.468;5.814;2023-04-24T09:20:20;23.92;;;5.35;;
60243;SDS011;46106;51.468;5.814;2023-04-24T09:22:46;19.98;;;5.57;;
60243;SDS011;46106;51.468;5.814;2023-04-24T09:25:12;19.73;;;6.68;;
60243;SDS011;46106;51.468;5.814;2023-04-24T09:27:41;27.13;;;8.02;;
60243;SDS011;46106;51.468;5.814;2023-04-24T09:30:10;41.65;;;9.45;;
60243;SDS011;46106;51.468;5.814;2023-04-24T09:32:36;32.47;;;8.90;;
60243;SDS011;46106;51.468;5.814;2023-04-24T09:35:09;34.28;;;7.40;;
60243;SDS011;46106;51.468;5.814;2023-04-24T09:37:42;30.17;;;7.53;;
60243;SDS011;46106;51.468;5.814;2023-04-24T09:42:57;18.65;;;5.88;;
60243;SDS011;46106;51.468;5.814;2023-04-24T09:45:44;23.42;;;6.75;;
60243;SDS011;46106;51.468;5.814;2023-04-24T09:48:09;29.00;;;5.90;;
60243;SDS011;46106;51.468;5.814;2023-04-24T09:50:35;23.17;;;6.53;;
60243;SDS011;46106;51.468;5.814;2023-04-24T09:53:01;16.38;;;5.45;;
60243;SDS011;46106;51.468;5.814;2023-04-24T09:55:28;22.60;;;5.40;;
60243;SDS011;46106;51.468;5.814;2023-04-24T09:57:55;20.73;;;4.88;;
60243;SDS011;46106;51.468;5.814;2023-04-24T10:00:30;18.83;;;4.63;;
60243;SDS011;46106;51.468;5.814;2023-04-24T10:02:58;20.25;;;5.18;;
60243;SDS011;46106;51.468;5.814;2023-04-24T10:05:34;18.48;;;4.63;;
60243;SDS011;46106;51.468;5.814;2023-04-24T10:10:40;26.05;;;5.43;;
60243;SDS011;46106;51.468;5.814;2023-04-24T10:13:12;19.15;;;5.65;;
60243;SDS011;46106;51.468;5.814;2023-04-24T10:15:39;20.20;;;5.03;;
60243;SDS011;46106;51.468;5.814;2023-04-24T10:18:06;25.95;;;5.70;;
60243;SDS011;46106;51.468;5.814;2023-04-24T10:20:32;23.42;;;4.38;;
60243;SDS011;46106;51.468;5.814;2023-04-24T10:22:59;17.42;;;5.00;;
60243;SDS011;46106;51.468;5.814;2023-04-24T10:25:28;18.70;;;3.80;;
60243;SDS011;46106;51.468;5.814;2023-04-24T10:27:55;15.40;;;3.53;;
60243;SDS011;46106;51.468;5.814;2023-04-24T10:30:29;14.45;;;2.30;;
60243;SDS011;46106;51.468;5.814;2023-04-24T10:32:55;16.30;;;2.72;;
60243;SDS011;46106;51.468;5.814;2023-04-24T10:35:21;13.65;;;4.65;;
60243;SDS011;46106;51.468;5.814;2023-04-24T10:37:57;17.45;;;3.30;;
60243;SDS011;46106;51.468;5.814;2023-04-24T10:40:27;12.77;;;2.00;;
60243;SDS011;46106;51.468;5.814;2023-04-24T10:42:56;16.20;;;3.78;;
60243;SDS011;46106;51.468;5.814;2023-04-24T10:45:22;18.17;;;3.50;;
60243;SDS011;46106;51.468;5.814;2023-04-24T10:47:52;16.92;;;3.03;;
60243;SDS011;46106;51.468;5.814;2023-04-24T10:50:18;16.52;;;2.75;;
60243;SDS011;46106;51.468;5.814;2023-04-24T10:52:44;13.70;;;2.42;;
60243;SDS011;46106;51.468;5.814;2023-04-24T10:55:15;13.82;;;2.78;;
60243;SDS011;46106;51.468;5.814;2023-04-24T10:58:00;5.57;;;1.58;;
60243;SDS011;46106;51.468;5.814;2023-04-24T11:00:27;5.90;;;1.67;;
60243;SDS011;46106;51.468;5.814;2023-04-24T11:02:53;10.45;;;1.35;;
60243;SDS011;46106;51.468;5.814;2023-04-24T11:05:19;10.55;;;1.17;;
60243;SDS011;46106;51.468;5.814;2023-04-24T11:10:56;6.57;;;1.38;;
60243;SDS011;46106;51.468;5.814;2023-04-24T11:16:21;10.82;;;1.33;;
60243;SDS011;46106;51.468;5.814;2023-04-24T11:29:42;2.75;;;0.90;;
60243;SDS011;46106;51.468;5.814;2023-04-24T11:34:52;8.52;;;0.95;;
60243;SDS011;46106;51.468;5.814;2023-04-24T11:37:50;10.70;;;1.23;;
60243;SDS011;46106;51.468;5.814;2023-04-24T11:40:15;3.40;;;0.85;;
60243;SDS011;46106;51.468;5.814;2023-04-24T11:42:43;4.22;;;1.00;;
60243;SDS011;46106;51.468;5.814;2023-04-24T11:45:22;5.75;;;0.90;;
60243;SDS011;46106;51.468;5.814;2023-04-24T11:47:49;7.65;;;1.85;;
60243;SDS011;46106;51.468;5.814;2023-04-24T11:50:16;9.00;;;1.25;;
60243;SDS011;46106;51.468;5.814;2023-04-24T11:52:44;7.13;;;1.30;;
60243;SDS011;46106;51.468;5.814;2023-04-24T11:57:48;9.73;;;1.45;;
60243;SDS011;46106;51.468;5.814;2023-04-24T12:00:16;2.55;;;1.00;;
60243;SDS011;46106;51.468;5.814;2023-04-24T12:02:42;4.78;;;0.90;;
60243;SDS011;46106;51.468;5.814;2023-04-24T12:05:07;7.22;;;1.05;;
60243;SDS011;46106;51.468;5.814;2023-04-24T12:07:40;6.00;;;1.20;;
60243;SDS011;46106;51.468;5.814;2023-04-24T12:10:09;7.50;;;1.10;;
60243;SDS011;46106;51.468;5.814;2023-04-24T12:12:35;3.38;;;1.33;;
60243;SDS011;46106;51.468;5.814;2023-04-24T12:15:00;11.25;;;1.88;;
60243;SDS011;46106;51.468;5.814;2023-04-24T12:17:32;6.88;;;1.20;;
60243;SDS011;46106;51.468;5.814;2023-04-24T12:19:59;6.25;;;1.20;;
60243;SDS011;46106;51.468;5.814;2023-04-24T12:22:26;8.63;;;1.00;;
60243;SDS011;46106;51.468;5.814;2023-04-24T12:25:01;5.00;;;1.00;;
60243;SDS011;46106;51.468;5.814;2023-04-24T12:27:32;2.42;;;0.90;;
60243;SDS011;46106;51.468;5.814;2023-04-24T12:30:02;3.57;;;1.00;;
60243;SDS011;46106;51.468;5.814;2023-04-24T12:32:30;3.60;;;0.80;;
60243;SDS011;46106;51.468;5.814;2023-04-24T12:34:56;5.18;;;1.08;;
60243;SDS011;46106;51.468;5.814;2023-04-24T12:37:25;8.00;;;0.80;;
60243;SDS011;46106;51.468;5.814;2023-04-24T12:40:05;4.15;;;0.80;;
60243;SDS011;46106;51.468;5.814;2023-04-24T12:42:36;2.40;;;0.77;;
60243;SDS011;46106;51.468;5.814;2023-04-24T12:45:09;5.00;;;1.10;;
60243;SDS011;46106;51.468;5.814;2023-04-24T12:47:37;5.60;;;1.00;;
60243;SDS011;46106;51.468;5.814;2023-04-24T12:50:04;5.78;;;1.10;;
60243;SDS011;46106;51.468;5.814;2023-04-24T12:52:31;5.10;;;0.82;;
60243;SDS011;46106;51.468;5.814;2023-04-24T12:54:57;3.75;;;0.95;;
60243;SDS011;46106;51.468;5.814;2023-04-24T12:57:25;4.63;;;0.80;;
60243;SDS011;46106;51.468;5.814;2023-04-24T12:59:54;5.20;;;1.10;;
60243;SDS011;46106;51.468;5.814;2023-04-24T13:02:21;3.75;;;0.90;;
60243;SDS011;46106;51.468;5.814;2023-04-24T13:04:52;2.53;;;0.80;;
60243;SDS011;46106;51.468;5.814;2023-04-24T13:07:18;7.22;;;0.80;;
60243;SDS011;46106;51.468;5.814;2023-04-24T13:09:44;3.20;;;0.65;;
60243;SDS011;46106;51.468;5.814;2023-04-24T13:12:10;0.95;;;0.60;;
60243;SDS011;46106;51.468;5.814;2023-04-24T13:14:39;2.20;;;0.73;;
60243;SDS011;46106;51.468;5.814;2023-04-24T13:17:04;2.97;;;0.77;;
60243;SDS011;46106;51.468;5.814;2023-04-24T13:19:35;6.55;;;0.98;;
60243;SDS011;46106;51.468;5.814;2023-04-24T13:22:04;4.47;;;0.82;;
60243;SDS011;46106;51.468;5.814;2023-04-24T13:24:30;11.13;;;0.80;;
60243;SDS011;46106;51.468;5.814;2023-04-24T13:26:56;4.22;;;0.80;;
60243;SDS011;46106;51.468;5.814;2023-04-24T13:29:22;1.42;;;0.75;;
60243;SDS011;46106;51.468;5.814;2023-04-24T13:31:51;3.28;;;0.88;;
60243;SDS011;46106;51.468;5.814;2023-04-24T13:34:22;2.17;;;0.75;;
60243;SDS011;46106;51.468;5.814;2023-04-24T13:36:49;9.70;;;0.93;;
60243;SDS011;46106;51.468;5.814;2023-04-24T13:39:19;6.47;;;0.60;;
60243;SDS011;46106;51.468;5.814;2023-04-24T13:41:45;1.02;;;0.60;;
60243;SDS011;46106;51.468;5.814;2023-04-24T13:44:12;5.45;;;0.95;;
60243;SDS011;46106;51.468;5.814;2023-04-24T13:46:38;2.28;;;0.63;;
60243;SDS011;46106;51.468;5.814;2023-04-24T13:49:03;4.50;;;0.68;;
60243;SDS011;46106;51.468;5.814;2023-04-24T13:51:29;4.38;;;1.13;;
60243;SDS011;46106;51.468;5.814;2023-04-24T13:53:55;6.63;;;1.33;;
60243;SDS011;46106;51.468;5.814;2023-04-24T13:56:20;2.75;;;1.13;;
60243;SDS011;46106;51.468;5.814;2023-04-24T13:58:47;2.85;;;1.10;;
60243;SDS011;46106;51.468;5.814;2023-04-24T14:01:13;4.55;;;0.90;;
60243;SDS011;46106;51.468;5.814;2023-04-24T14:03:39;5.85;;;0.90;;
60243;SDS011;46106;51.468;5.814;2023-04-24T14:06:05;7.57;;;1.10;;
60243;SDS011;46106;51.468;5.814;2023-04-24T14:08:31;2.40;;;0.85;;
60243;SDS011;46106;51.468;5.814;2023-04-24T14:10:57;6.95;;;0.93;;
60243;SDS011;46106;51.468;5.814;2023-04-24T14:13:22;5.03;;;1.08;;
60243;SDS011;46106;51.468;5.814;2023-04-24T14:15:48;8.80;;;1.00;;
60243;SDS011;46106;51.468;5.814;2023-04-24T14:18:13;2.85;;;1.20;;
60243;SDS011;46106;51.468;5.814;2023-04-24T14:20:39;5.80;;;1.30;;
60243;SDS011;46106;51.468;5.814;2023-04-24T14:23:05;6.10;;;1.10;;
60243;SDS011;46106;51.468;5.814;2023-04-24T14:25:30;4.80;;;1.10;;
60243;SDS011;46106;51.468;5.814;2023-04-24T14:27:56;4.68;;;1.38;;
60243;SDS011;46106;51.468;5.814;2023-04-24T14:30:21;8.75;;;1.38;;
60243;SDS011;46106;51.468;5.814;2023-04-24T14:32:47;4.90;;;1.40;;
60243;SDS011;46106;51.468;5.814;2023-04-24T14:35:13;6.13;;;1.33;;
60243;SDS011;46106;51.468;5.814;2023-04-24T14:37:39;5.07;;;1.00;;
60243;SDS011;46106;51.468;5.814;2023-04-24T14:40:06;4.53;;;1.60;;
60243;SDS011;46106;51.468;5.814;2023-04-24T14:42:35;3.05;;;1.17;;
60243;SDS011;46106;51.468;5.814;2023-04-24T14:45:01;5.65;;;1.38;;
60243;SDS011;46106;51.468;5.814;2023-04-24T14:47:27;4.10;;;1.35;;
60243;SDS011;46106;51.468;5.814;2023-04-24T14:49:52;3.92;;;1.25;;
60243;SDS011;46106;51.468;5.814;2023-04-24T14:52:18;6.15;;;1.10;;
60243;SDS011;46106;51.468;5.814;2023-04-24T14:54:43;4.22;;;0.98;;
60243;SDS011;46106;51.468;5.814;2023-04-24T14:57:09;5.57;;;1.10;;
60243;SDS011;46106;51.468;5.814;2023-04-24T14:59:34;5.28;;;1.17;;
60243;SDS011;46106;51.468;5.814;2023-04-24T15:02:00;4.53;;;2.03;;